sensor_id;sensor_type;location;lat;lon;timestamp;P1;durP1;ratioP1;P2;durP2;ratioP2
77105;SDS011;66057;54.718;18.426;2023-05-14T00:01:14;8.10;;;3.60;;
77105;SDS011;66057;54.718;18.426;2023-05-14T00:03:40;5.35;;;3.08;;
77105;SDS011;66057;54.718;18.426;2023-05-14T00:06:06;5.03;;;2.90;;
77105;SDS011;66057;54.718;18.426;2023-05-14T00:08:36;6.13;;;3.50;;
77105;SDS011;66057;54.718;18.426;2023-05-14T00:11:02;10.20;;;3.03;;
77105;SDS011;66057;54.718;18.426;2023-05-14T00:16:00;4.38;;;2.90;;
77105;SDS011;66057;54.718;18.426;2023-05-14T00:18:27;4.97;;;2.55;;
77105;SDS011;66057;54.718;18.426;2023-05-14T00:20:53;4.78;;;2.60;;
77105;SDS011;66057;54.718;18.426;2023-05-14T00:23:20;4.55;;;2.40;;
77105;SDS011;66057;54.718;18.426;2023-05-14T00:25:57;6.78;;;2.67;;
77105;SDS011;66057;54.718;18.426;2023-05-14T00:28:23;4.20;;;2.50;;
77105;SDS011;66057;54.718;18.426;2023-05-14T00:30:49;6.18;;;3.05;;
77105;SDS011;66057;54.718;18.426;2023-05-14T00:33:16;5.63;;;2.88;;
77105;SDS011;66057;54.718;18.426;2023-05-14T00:35:42;6.65;;;2.60;;
77105;SDS011;66057;54.718;18.426;2023-05-14T00:38:08;5.28;;;3.10;;
77105;SDS011;66057;54.718;18.426;2023-05-14T00:40:41;6.45;;;2.92;;
77105;SDS011;66057;54.718;18.426;2023-05-14T00:43:10;5.05;;;2.95;;
77105;SDS011;66057;54.718;18.426;2023-05-14T00:45:37;4.28;;;3.00;;
77105;SDS011;66057;54.718;18.426;2023-05-14T00:48:03;4.85;;;3.13;;
77105;SDS011;66057;54.718;18.426;2023-05-14T00:50:29;4.15;;;2.58;;
77105;SDS011;66057;54.718;18.426;2023-05-14T00:52:59;6.57;;;3.25;;
77105;SDS011;66057;54.718;18.426;2023-05-14T00:55:25;5.03;;;2.95;;
77105;SDS011;66057;54.718;18.426;2023-05-14T00:57:55;6.85;;;4.15;;
77105;SDS011;66057;54.718;18.426;2023-05-14T01:00:30;20.52;;;8.15;;
77105;SDS011;66057;54.718;18.426;2023-05-14T01:02:59;14.82;;;6.53;;
77105;SDS011;66057;54.718;18.426;2023-05-14T01:05:27;9.32;;;4.82;;
77105;SDS011;66057;54.718;18.426;2023-05-14T01:14:39;9.07;;;4.90;;
77105;SDS011;66057;54.718;18.426;2023-05-14T01:17:14;9.65;;;5.18;;
77105;SDS011;66057;54.718;18.426;2023-05-14T01:19:45;10.63;;;5.00;;
77105;SDS011;66057;54.718;18.426;2023-05-14T01:22:12;9.90;;;5.40;;
77105;SDS011;66057;54.718;18.426;2023-05-14T01:24:38;16.25;;;7.38;;
77105;SDS011;66057;54.718;18.426;2023-05-14T01:29:31;13.57;;;7.10;;
77105;SDS011;66057;54.718;18.426;2023-05-14T01:32:00;13.52;;;7.53;;
77105;SDS011;66057;54.718;18.426;2023-05-14T01:34:31;12.23;;;7.18;;
77105;SDS011;66057;54.718;18.426;2023-05-14T01:36:59;12.85;;;5.72;;
77105;SDS011;66057;54.718;18.426;2023-05-14T01:39:27;13.07;;;6.90;;
77105;SDS011;66057;54.718;18.426;2023-05-14T01:41:56;11.02;;;6.25;;
77105;SDS011;66057;54.718;18.426;2023-05-14T01:44:24;9.75;;;6.20;;
77105;SDS011;66057;54.718;18.426;2023-05-14T01:46:50;8.00;;;5.25;;
77105;SDS011;66057;54.718;18.426;2023-05-14T01:49:17;10.65;;;5.53;;
77105;SDS011;66057;54.718;18.426;2023-05-14T01:51:43;7.65;;;5.55;;
77105;SDS011;66057;54.718;18.426;2023-05-14T01:54:17;8.05;;;4.93;;
77105;SDS011;66057;54.718;18.426;2023-05-14T01:57:04;7.55;;;4.28;;
77105;SDS011;66057;54.718;18.426;2023-05-14T01:59:35;7.30;;;4.20;;
77105;SDS011;66057;54.718;18.426;2023-05-14T02:02:10;6.13;;;4.35;;
77105;SDS011;66057;54.718;18.426;2023-05-14T02:04:40;8.40;;;5.40;;
77105;SDS011;66057;54.718;18.426;2023-05-14T02:07:17;12.90;;;5.13;;
77105;SDS011;66057;54.718;18.426;2023-05-14T02:09:51;9.70;;;6.45;;
77105;SDS011;66057;54.718;18.426;2023-05-14T02:12:20;10.38;;;6.20;;
77105;SDS011;66057;54.718;18.426;2023-05-14T02:14:49;8.02;;;5.53;;
77105;SDS011;66057;54.718;18.426;2023-05-14T02:17:16;8.38;;;5.18;;
77105;SDS011;66057;54.718;18.426;2023-05-14T02:19:45;8.60;;;5.45;;
77105;SDS011;66057;54.718;18.426;2023-05-14T02:22:11;5.53;;;4.68;;
77105;SDS011;66057;54.718;18.426;2023-05-14T02:24:38;14.10;;;5.25;;
77105;SDS011;66057;54.718;18.426;2023-05-14T02:27:04;7.53;;;5.53;;
77105;SDS011;66057;54.718;18.426;2023-05-14T02:29:30;7.88;;;5.47;;
77105;SDS011;66057;54.718;18.426;2023-05-14T02:31:56;8.32;;;5.22;;
77105;SDS011;66057;54.718;18.426;2023-05-14T02:34:22;7.13;;;5.68;;
77105;SDS011;66057;54.718;18.426;2023-05-14T02:36:48;9.90;;;5.40;;
77105;SDS011;66057;54.718;18.426;2023-05-14T02:39:17;10.32;;;5.45;;
77105;SDS011;66057;54.718;18.426;2023-05-14T02:41:45;8.38;;;5.18;;
77105;SDS011;66057;54.718;18.426;2023-05-14T02:44:20;10.32;;;5.95;;
77105;SDS011;66057;54.718;18.426;2023-05-14T02:47:41;7.65;;;5.10;;
77105;SDS011;66057;54.718;18.426;2023-05-14T02:50:16;8.68;;;5.10;;
77105;SDS011;66057;54.718;18.426;2023-05-14T02:52:45;6.88;;;5.13;;
77105;SDS011;66057;54.718;18.426;2023-05-14T02:55:42;8.52;;;5.30;;
77105;SDS011;66057;54.718;18.426;2023-05-14T02:58:35;8.35;;;5.43;;
77105;SDS011;66057;54.718;18.426;2023-05-14T03:01:05;7.55;;;5.20;;
77105;SDS011;66057;54.718;18.426;2023-05-14T03:03:54;7.55;;;4.85;;
77105;SDS011;66057;54.718;18.426;2023-05-14T03:06:41;9.75;;;4.57;;
77105;SDS011;66057;54.718;18.426;2023-05-14T03:09:44;10.30;;;4.75;;
77105;SDS011;66057;54.718;18.426;2023-05-14T03:12:39;10.27;;;4.38;;
77105;SDS011;66057;54.718;18.426;2023-05-14T03:15:29;9.00;;;4.95;;
77105;SDS011;66057;54.718;18.426;2023-05-14T03:18:01;6.57;;;4.45;;
77105;SDS011;66057;54.718;18.426;2023-05-14T03:20:49;8.82;;;4.63;;
77105;SDS011;66057;54.718;18.426;2023-05-14T03:23:15;8.15;;;4.28;;
77105;SDS011;66057;54.718;18.426;2023-05-14T03:25:52;8.38;;;4.72;;
77105;SDS011;66057;54.718;18.426;2023-05-14T03:28:36;6.85;;;5.07;;
77105;SDS011;66057;54.718;18.426;2023-05-14T03:31:05;6.35;;;4.60;;
77105;SDS011;66057;54.718;18.426;2023-05-14T03:33:34;9.75;;;4.40;;
77105;SDS011;66057;54.718;18.426;2023-05-14T03:36:22;8.30;;;4.45;;
77105;SDS011;66057;54.718;18.426;2023-05-14T03:39:14;9.98;;;4.82;;
77105;SDS011;66057;54.718;18.426;2023-05-14T03:42:13;5.80;;;4.35;;
77105;SDS011;66057;54.718;18.426;2023-05-14T03:45:14;6.80;;;4.43;;
77105;SDS011;66057;54.718;18.426;2023-05-14T03:47:44;11.07;;;5.43;;
77105;SDS011;66057;54.718;18.426;2023-05-14T03:50:26;5.00;;;3.95;;
77105;SDS011;66057;54.718;18.426;2023-05-14T03:52:54;9.02;;;4.32;;
77105;SDS011;66057;54.718;18.426;2023-05-14T03:55:46;7.88;;;4.03;;
77105;SDS011;66057;54.718;18.426;2023-05-14T03:58:41;7.35;;;4.82;;
77105;SDS011;66057;54.718;18.426;2023-05-14T04:01:43;9.73;;;4.95;;
77105;SDS011;66057;54.718;18.426;2023-05-14T04:04:30;7.32;;;4.82;;
77105;SDS011;66057;54.718;18.426;2023-05-14T04:07:03;7.13;;;4.57;;
77105;SDS011;66057;54.718;18.426;2023-05-14T04:09:31;9.00;;;5.57;;
77105;SDS011;66057;54.718;18.426;2023-05-14T04:11:58;7.25;;;4.90;;
77105;SDS011;66057;54.718;18.426;2023-05-14T04:14:24;10.25;;;4.70;;
77105;SDS011;66057;54.718;18.426;2023-05-14T04:16:50;8.13;;;4.57;;
77105;SDS011;66057;54.718;18.426;2023-05-14T04:19:16;8.70;;;4.80;;
77105;SDS011;66057;54.718;18.426;2023-05-14T04:21:43;6.10;;;4.15;;
77105;SDS011;66057;54.718;18.426;2023-05-14T04:24:09;9.90;;;5.25;;
77105;SDS011;66057;54.718;18.426;2023-05-14T04:26:35;8.13;;;4.70;;
77105;SDS011;66057;54.718;18.426;2023-05-14T04:29:04;6.32;;;4.32;;
77105;SDS011;66057;54.718;18.426;2023-05-14T04:31:30;10.35;;;4.55;;
77105;SDS011;66057;54.718;18.426;2023-05-14T04:34:01;6.47;;;5.18;;
77105;SDS011;66057;54.718;18.426;2023-05-14T04:36:30;7.57;;;5.03;;
77105;SDS011;66057;54.718;18.426;2023-05-14T04:38:56;9.15;;;5.38;;
77105;SDS011;66057;54.718;18.426;2023-05-14T04:41:26;7.78;;;4.25;;
77105;SDS011;66057;54.718;18.426;2023-05-14T04:43:54;5.20;;;3.70;;
77105;SDS011;66057;54.718;18.426;2023-05-14T04:46:20;7.10;;;4.03;;
77105;SDS011;66057;54.718;18.426;2023-05-14T04:48:46;6.32;;;4.20;;
77105;SDS011;66057;54.718;18.426;2023-05-14T04:51:16;5.78;;;4.10;;
77105;SDS011;66057;54.718;18.426;2023-05-14T04:53:45;6.95;;;5.25;;
77105;SDS011;66057;54.718;18.426;2023-05-14T04:56:17;6.03;;;4.15;;
77105;SDS011;66057;54.718;18.426;2023-05-14T04:58:43;5.63;;;4.63;;
77105;SDS011;66057;54.718;18.426;2023-05-14T05:01:12;7.03;;;4.97;;
77105;SDS011;66057;54.718;18.426;2023-05-14T05:03:45;8.70;;;5.22;;
77105;SDS011;66057;54.718;18.426;2023-05-14T05:06:21;7.13;;;5.47;;
77105;SDS011;66057;54.718;18.426;2023-05-14T05:08:50;10.82;;;5.72;;
77105;SDS011;66057;54.718;18.426;2023-05-14T05:11:17;8.88;;;5.90;;
77105;SDS011;66057;54.718;18.426;2023-05-14T05:13:43;10.32;;;4.65;;
77105;SDS011;66057;54.718;18.426;2023-05-14T05:16:09;8.63;;;5.97;;
77105;SDS011;66057;54.718;18.426;2023-05-14T05:18:35;10.32;;;6.25;;
77105;SDS011;66057;54.718;18.426;2023-05-14T05:21:01;10.07;;;6.32;;
77105;SDS011;66057;54.718;18.426;2023-05-14T05:23:27;8.65;;;6.50;;
77105;SDS011;66057;54.718;18.426;2023-05-14T05:25:55;9.45;;;6.15;;
77105;SDS011;66057;54.718;18.426;2023-05-14T05:28:21;7.85;;;5.45;;
77105;SDS011;66057;54.718;18.426;2023-05-14T05:30:49;8.77;;;5.68;;
77105;SDS011;66057;54.718;18.426;2023-05-14T05:33:20;8.25;;;5.25;;
77105;SDS011;66057;54.718;18.426;2023-05-14T05:35:51;9.55;;;6.07;;
77105;SDS011;66057;54.718;18.426;2023-05-14T05:38:17;13.88;;;6.03;;
77105;SDS011;66057;54.718;18.426;2023-05-14T05:40:43;6.75;;;5.25;;
77105;SDS011;66057;54.718;18.426;2023-05-14T05:43:09;9.70;;;6.13;;
77105;SDS011;66057;54.718;18.426;2023-05-14T05:45:38;6.65;;;5.35;;
77105;SDS011;66057;54.718;18.426;2023-05-14T05:48:04;9.63;;;4.97;;
77105;SDS011;66057;54.718;18.426;2023-05-14T05:50:30;7.70;;;5.00;;
77105;SDS011;66057;54.718;18.426;2023-05-14T05:52:56;9.35;;;5.72;;
77105;SDS011;66057;54.718;18.426;2023-05-14T05:55:24;8.98;;;5.38;;
77105;SDS011;66057;54.718;18.426;2023-05-14T05:57:50;10.77;;;5.47;;
77105;SDS011;66057;54.718;18.426;2023-05-14T06:00:16;9.27;;;5.97;;
77105;SDS011;66057;54.718;18.426;2023-05-14T06:02:43;13.73;;;5.95;;
77105;SDS011;66057;54.718;18.426;2023-05-14T06:05:11;9.13;;;5.07;;
77105;SDS011;66057;54.718;18.426;2023-05-14T06:07:37;9.82;;;6.22;;
77105;SDS011;66057;54.718;18.426;2023-05-14T06:10:04;9.85;;;5.72;;
77105;SDS011;66057;54.718;18.426;2023-05-14T06:14:59;7.28;;;5.07;;
77105;SDS011;66057;54.718;18.426;2023-05-14T06:17:25;8.20;;;5.32;;
77105;SDS011;66057;54.718;18.426;2023-05-14T06:19:55;8.90;;;5.05;;
77105;SDS011;66057;54.718;18.426;2023-05-14T06:22:20;9.30;;;5.53;;
77105;SDS011;66057;54.718;18.426;2023-05-14T06:24:51;10.35;;;5.30;;
77105;SDS011;66057;54.718;18.426;2023-05-14T06:27:17;9.32;;;4.95;;
77105;SDS011;66057;54.718;18.426;2023-05-14T06:29:46;9.77;;;4.78;;
77105;SDS011;66057;54.718;18.426;2023-05-14T06:32:11;6.20;;;4.53;;
77105;SDS011;66057;54.718;18.426;2023-05-14T06:34:40;9.90;;;4.47;;
77105;SDS011;66057;54.718;18.426;2023-05-14T06:37:09;9.90;;;5.50;;
77105;SDS011;66057;54.718;18.426;2023-05-14T06:39:36;8.25;;;5.30;;
77105;SDS011;66057;54.718;18.426;2023-05-14T06:42:02;7.93;;;5.32;;
77105;SDS011;66057;54.718;18.426;2023-05-14T06:44:28;7.95;;;5.03;;
77105;SDS011;66057;54.718;18.426;2023-05-14T06:46:55;8.85;;;5.35;;
77105;SDS011;66057;54.718;18.426;2023-05-14T06:49:21;7.88;;;4.93;;
77105;SDS011;66057;54.718;18.426;2023-05-14T06:51:50;7.22;;;4.80;;
77105;SDS011;66057;54.718;18.426;2023-05-14T06:56:43;7.38;;;5.30;;
77105;SDS011;66057;54.718;18.426;2023-05-14T06:59:09;6.75;;;5.35;;
77105;SDS011;66057;54.718;18.426;2023-05-14T07:01:38;9.23;;;4.93;;
77105;SDS011;66057;54.718;18.426;2023-05-14T07:04:05;8.57;;;4.50;;
77105;SDS011;66057;54.718;18.426;2023-05-14T07:06:33;7.22;;;5.25;;
77105;SDS011;66057;54.718;18.426;2023-05-14T07:09:02;7.57;;;4.93;;
77105;SDS011;66057;54.718;18.426;2023-05-14T07:11:29;7.90;;;4.80;;
77105;SDS011;66057;54.718;18.426;2023-05-14T07:13:56;7.07;;;4.90;;
77105;SDS011;66057;54.718;18.426;2023-05-14T07:18:48;8.43;;;4.90;;
77105;SDS011;66057;54.718;18.426;2023-05-14T07:21:14;7.35;;;4.85;;
77105;SDS011;66057;54.718;18.426;2023-05-14T07:23:40;9.13;;;4.53;;
77105;SDS011;66057;54.718;18.426;2023-05-14T07:26:09;11.13;;;5.38;;
77105;SDS011;66057;54.718;18.426;2023-05-14T07:28:35;7.65;;;4.80;;
77105;SDS011;66057;54.718;18.426;2023-05-14T07:31:01;9.68;;;5.25;;
77105;SDS011;66057;54.718;18.426;2023-05-14T07:33:33;9.13;;;5.53;;
77105;SDS011;66057;54.718;18.426;2023-05-14T07:36:00;8.43;;;5.78;;
77105;SDS011;66057;54.718;18.426;2023-05-14T07:38:26;8.35;;;5.53;;
77105;SDS011;66057;54.718;18.426;2023-05-14T07:40:52;13.75;;;5.85;;
77105;SDS011;66057;54.718;18.426;2023-05-14T07:45:44;8.38;;;5.47;;
77105;SDS011;66057;54.718;18.426;2023-05-14T07:48:10;8.52;;;5.60;;
77105;SDS011;66057;54.718;18.426;2023-05-14T07:50:36;8.23;;;5.43;;
77105;SDS011;66057;54.718;18.426;2023-05-14T07:53:02;11.55;;;5.40;;
77105;SDS011;66057;54.718;18.426;2023-05-14T07:55:29;10.60;;;5.60;;
77105;SDS011;66057;54.718;18.426;2023-05-14T07:57:55;9.13;;;5.93;;
77105;SDS011;66057;54.718;18.426;2023-05-14T08:00:21;7.85;;;5.45;;
77105;SDS011;66057;54.718;18.426;2023-05-14T08:02:47;8.02;;;5.38;;
77105;SDS011;66057;54.718;18.426;2023-05-14T08:05:13;8.30;;;6.03;;
77105;SDS011;66057;54.718;18.426;2023-05-14T08:10:06;9.93;;;5.28;;
77105;SDS011;66057;54.718;18.426;2023-05-14T08:12:35;7.75;;;5.70;;
77105;SDS011;66057;54.718;18.426;2023-05-14T08:15:01;8.65;;;5.35;;
77105;SDS011;66057;54.718;18.426;2023-05-14T08:17:28;10.52;;;4.97;;
77105;SDS011;66057;54.718;18.426;2023-05-14T08:22:23;6.85;;;5.22;;
77105;SDS011;66057;54.718;18.426;2023-05-14T08:24:49;9.23;;;5.85;;
77105;SDS011;66057;54.718;18.426;2023-05-14T08:27:18;7.05;;;5.70;;
77105;SDS011;66057;54.718;18.426;2023-05-14T08:29:43;9.20;;;6.00;;
77105;SDS011;66057;54.718;18.426;2023-05-14T08:32:09;8.43;;;5.97;;
77105;SDS011;66057;54.718;18.426;2023-05-14T08:34:35;9.93;;;6.50;;
77105;SDS011;66057;54.718;18.426;2023-05-14T08:37:01;9.02;;;6.45;;
77105;SDS011;66057;54.718;18.426;2023-05-14T08:39:27;10.60;;;6.78;;
77105;SDS011;66057;54.718;18.426;2023-05-14T08:41:54;10.90;;;7.05;;
77105;SDS011;66057;54.718;18.426;2023-05-14T08:44:27;8.52;;;6.85;;
77105;SDS011;66057;54.718;18.426;2023-05-14T08:47:01;9.90;;;6.80;;
77105;SDS011;66057;54.718;18.426;2023-05-14T08:49:32;9.63;;;6.22;;
77105;SDS011;66057;54.718;18.426;2023-05-14T08:52:07;9.45;;;7.25;;
77105;SDS011;66057;54.718;18.426;2023-05-14T08:54:34;12.20;;;6.53;;
77105;SDS011;66057;54.718;18.426;2023-05-14T08:57:01;9.27;;;6.75;;
77105;SDS011;66057;54.718;18.426;2023-05-14T08:59:33;10.07;;;6.53;;
77105;SDS011;66057;54.718;18.426;2023-05-14T09:02:00;10.65;;;7.25;;
77105;SDS011;66057;54.718;18.426;2023-05-14T09:04:28;10.27;;;7.07;;
77105;SDS011;66057;54.718;18.426;2023-05-14T09:06:56;9.32;;;6.97;;
77105;SDS011;66057;54.718;18.426;2023-05-14T09:09:26;9.35;;;6.47;;
77105;SDS011;66057;54.718;18.426;2023-05-14T09:11:53;11.43;;;7.13;;
77105;SDS011;66057;54.718;18.426;2023-05-14T09:14:19;9.57;;;7.05;;
77105;SDS011;66057;54.718;18.426;2023-05-14T09:16:53;11.38;;;7.32;;
77105;SDS011;66057;54.718;18.426;2023-05-14T09:19:21;14.18;;;7.10;;
77105;SDS011;66057;54.718;18.426;2023-05-14T09:21:50;16.75;;;7.13;;
77105;SDS011;66057;54.718;18.426;2023-05-14T09:24:17;10.95;;;7.13;;
77105;SDS011;66057;54.718;18.426;2023-05-14T09:26:48;9.68;;;7.18;;
77105;SDS011;66057;54.718;18.426;2023-05-14T09:29:17;12.52;;;7.05;;
77105;SDS011;66057;54.718;18.426;2023-05-14T09:34:09;11.70;;;6.78;;
77105;SDS011;66057;54.718;18.426;2023-05-14T09:36:38;14.68;;;7.72;;
77105;SDS011;66057;54.718;18.426;2023-05-14T09:39:07;10.90;;;7.78;;
77105;SDS011;66057;54.718;18.426;2023-05-14T09:41:34;9.45;;;7.22;;
77105;SDS011;66057;54.718;18.426;2023-05-14T09:43:59;10.95;;;7.78;;
77105;SDS011;66057;54.718;18.426;2023-05-14T09:46:26;12.95;;;7.82;;
77105;SDS011;66057;54.718;18.426;2023-05-14T09:48:54;11.65;;;8.23;;
77105;SDS011;66057;54.718;18.426;2023-05-14T09:51:23;11.32;;;8.73;;
77105;SDS011;66057;54.718;18.426;2023-05-14T09:53:51;13.20;;;8.85;;
77105;SDS011;66057;54.718;18.426;2023-05-14T09:56:19;14.43;;;8.73;;
77105;SDS011;66057;54.718;18.426;2023-05-14T09:58:45;9.98;;;7.43;;
77105;SDS011;66057;54.718;18.426;2023-05-14T10:01:12;11.38;;;8.02;;
77105;SDS011;66057;54.718;18.426;2023-05-14T10:03:41;12.75;;;7.70;;
77105;SDS011;66057;54.718;18.426;2023-05-14T10:06:08;11.95;;;8.50;;
77105;SDS011;66057;54.718;18.426;2023-05-14T10:08:35;12.50;;;8.52;;
77105;SDS011;66057;54.718;18.426;2023-05-14T10:11:07;13.27;;;9.10;;
77105;SDS011;66057;54.718;18.426;2023-05-14T10:13:38;15.40;;;9.57;;
77105;SDS011;66057;54.718;18.426;2023-05-14T10:18:55;14.07;;;10.43;;
77105;SDS011;66057;54.718;18.426;2023-05-14T10:21:34;15.43;;;10.02;;
77105;SDS011;66057;54.718;18.426;2023-05-14T10:24:05;15.63;;;11.15;;
77105;SDS011;66057;54.718;18.426;2023-05-14T10:26:35;17.85;;;11.15;;
77105;SDS011;66057;54.718;18.426;2023-05-14T10:29:06;19.42;;;11.38;;
77105;SDS011;66057;54.718;18.426;2023-05-14T10:31:44;20.25;;;11.77;;
77105;SDS011;66057;54.718;18.426;2023-05-14T10:34:31;17.95;;;11.02;;
77105;SDS011;66057;54.718;18.426;2023-05-14T10:37:06;19.58;;;11.68;;
77105;SDS011;66057;54.718;18.426;2023-05-14T10:39:42;15.82;;;9.23;;
77105;SDS011;66057;54.718;18.426;2023-05-14T10:42:27;16.15;;;10.05;;
77105;SDS011;66057;54.718;18.426;2023-05-14T10:45:12;13.75;;;9.30;;
77105;SDS011;66057;54.718;18.426;2023-05-14T10:47:43;12.20;;;9.32;;
77105;SDS011;66057;54.718;18.426;2023-05-14T10:50:11;17.00;;;10.48;;
77105;SDS011;66057;54.718;18.426;2023-05-14T10:52:40;13.27;;;9.65;;
77105;SDS011;66057;54.718;18.426;2023-05-14T10:55:08;11.52;;;9.13;;
77105;SDS011;66057;54.718;18.426;2023-05-14T10:57:38;13.70;;;9.23;;
77105;SDS011;66057;54.718;18.426;2023-05-14T11:00:06;13.75;;;10.40;;
77105;SDS011;66057;54.718;18.426;2023-05-14T11:02:39;15.45;;;10.48;;
77105;SDS011;66057;54.718;18.426;2023-05-14T11:05:12;15.73;;;9.45;;
77105;SDS011;66057;54.718;18.426;2023-05-14T11:07:48;18.83;;;9.55;;
77105;SDS011;66057;54.718;18.426;2023-05-14T11:10:15;14.98;;;9.07;;
77105;SDS011;66057;54.718;18.426;2023-05-14T11:12:46;13.85;;;9.20;;
77105;SDS011;66057;54.718;18.426;2023-05-14T11:15:14;15.40;;;8.65;;
77105;SDS011;66057;54.718;18.426;2023-05-14T11:17:45;11.85;;;7.60;;
77105;SDS011;66057;54.718;18.426;2023-05-14T11:20:12;12.55;;;8.50;;
77105;SDS011;66057;54.718;18.426;2023-05-14T11:22:42;11.07;;;6.78;;
77105;SDS011;66057;54.718;18.426;2023-05-14T11:25:09;10.52;;;7.13;;
77105;SDS011;66057;54.718;18.426;2023-05-14T11:27:40;9.95;;;7.07;;
77105;SDS011;66057;54.718;18.426;2023-05-14T11:30:13;12.57;;;7.22;;
77105;SDS011;66057;54.718;18.426;2023-05-14T11:32:53;10.82;;;7.53;;
77105;SDS011;66057;54.718;18.426;2023-05-14T11:35:20;13.07;;;7.88;;
77105;SDS011;66057;54.718;18.426;2023-05-14T11:37:49;11.38;;;8.20;;
77105;SDS011;66057;54.718;18.426;2023-05-14T11:40:22;11.75;;;6.65;;
77105;SDS011;66057;54.718;18.426;2023-05-14T11:42:51;11.13;;;7.32;;
77105;SDS011;66057;54.718;18.426;2023-05-14T11:45:24;12.75;;;6.60;;
77105;SDS011;66057;54.718;18.426;2023-05-14T11:47:52;12.57;;;6.93;;
77105;SDS011;66057;54.718;18.426;2023-05-14T11:50:21;10.18;;;6.45;;
77105;SDS011;66057;54.718;18.426;2023-05-14T11:52:47;8.18;;;6.53;;
77105;SDS011;66057;54.718;18.426;2023-05-14T11:55:15;10.07;;;6.10;;
77105;SDS011;66057;54.718;18.426;2023-05-14T11:57:42;8.48;;;5.65;;
77105;SDS011;66057;54.718;18.426;2023-05-14T12:00:09;11.13;;;6.20;;
77105;SDS011;66057;54.718;18.426;2023-05-14T12:02:41;9.15;;;6.07;;
77105;SDS011;66057;54.718;18.426;2023-05-14T12:05:07;7.93;;;6.15;;
77105;SDS011;66057;54.718;18.426;2023-05-14T12:07:33;8.15;;;5.10;;
77105;SDS011;66057;54.718;18.426;2023-05-14T12:10:00;8.50;;;5.40;;
77105;SDS011;66057;54.718;18.426;2023-05-14T12:12:32;11.38;;;5.68;;
77105;SDS011;66057;54.718;18.426;2023-05-14T12:15:11;11.02;;;6.00;;
77105;SDS011;66057;54.718;18.426;2023-05-14T12:17:56;7.38;;;5.35;;
77105;SDS011;66057;54.718;18.426;2023-05-14T12:20:24;9.43;;;5.47;;
77105;SDS011;66057;54.718;18.426;2023-05-14T12:22:56;7.85;;;5.72;;
77105;SDS011;66057;54.718;18.426;2023-05-14T12:25:25;8.23;;;5.32;;
77105;SDS011;66057;54.718;18.426;2023-05-14T12:27:51;8.98;;;5.47;;
77105;SDS011;66057;54.718;18.426;2023-05-14T12:30:17;8.20;;;4.82;;
77105;SDS011;66057;54.718;18.426;2023-05-14T12:32:43;6.60;;;4.50;;
77105;SDS011;66057;54.718;18.426;2023-05-14T12:35:09;9.68;;;4.97;;
77105;SDS011;66057;54.718;18.426;2023-05-14T12:37:35;8.65;;;5.22;;
77105;SDS011;66057;54.718;18.426;2023-05-14T12:40:02;10.35;;;5.28;;
77105;SDS011;66057;54.718;18.426;2023-05-14T12:42:31;5.53;;;4.00;;
77105;SDS011;66057;54.718;18.426;2023-05-14T12:44:56;5.45;;;3.95;;
77105;SDS011;66057;54.718;18.426;2023-05-14T12:49:50;8.55;;;3.97;;
77105;SDS011;66057;54.718;18.426;2023-05-14T12:54:42;7.07;;;4.25;;
77105;SDS011;66057;54.718;18.426;2023-05-14T12:57:08;6.00;;;4.18;;
77105;SDS011;66057;54.718;18.426;2023-05-14T13:02:00;7.35;;;5.05;;
77105;SDS011;66057;54.718;18.426;2023-05-14T13:04:29;6.35;;;4.50;;
77105;SDS011;66057;54.718;18.426;2023-05-14T13:09:20;9.10;;;4.90;;
77105;SDS011;66057;54.718;18.426;2023-05-14T13:11:47;7.15;;;4.75;;
77105;SDS011;66057;54.718;18.426;2023-05-14T13:14:16;8.25;;;4.65;;
77105;SDS011;66057;54.718;18.426;2023-05-14T13:16:42;11.07;;;5.30;;
77105;SDS011;66057;54.718;18.426;2023-05-14T13:19:10;6.85;;;5.15;;
77105;SDS011;66057;54.718;18.426;2023-05-14T13:21:36;7.57;;;5.43;;
77105;SDS011;66057;54.718;18.426;2023-05-14T13:26:31;9.30;;;4.20;;
77105;SDS011;66057;54.718;18.426;2023-05-14T13:31:23;6.60;;;5.22;;
77105;SDS011;66057;54.718;18.426;2023-05-14T13:36:15;8.40;;;4.90;;
77105;SDS011;66057;54.718;18.426;2023-05-14T13:38:41;7.88;;;4.80;;
77105;SDS011;66057;54.718;18.426;2023-05-14T13:41:07;9.10;;;5.10;;
77105;SDS011;66057;54.718;18.426;2023-05-14T13:46:00;5.03;;;4.07;;
77105;SDS011;66057;54.718;18.426;2023-05-14T13:48:30;8.20;;;4.97;;
77105;SDS011;66057;54.718;18.426;2023-05-14T13:50:56;6.80;;;4.25;;
77105;SDS011;66057;54.718;18.426;2023-05-14T13:53:22;9.77;;;4.65;;
77105;SDS011;66057;54.718;18.426;2023-05-14T13:55:49;5.68;;;4.65;;
77105;SDS011;66057;54.718;18.426;2023-05-14T13:58:21;8.90;;;4.85;;
77105;SDS011;66057;54.718;18.426;2023-05-14T14:00:49;6.10;;;4.47;;
77105;SDS011;66057;54.718;18.426;2023-05-14T14:03:15;8.93;;;4.45;;
77105;SDS011;66057;54.718;18.426;2023-05-14T14:08:07;7.03;;;4.22;;
77105;SDS011;66057;54.718;18.426;2023-05-14T14:10:37;11.65;;;4.45;;
77105;SDS011;66057;54.718;18.426;2023-05-14T14:13:05;7.95;;;4.30;;
77105;SDS011;66057;54.718;18.426;2023-05-14T14:15:33;13.02;;;5.40;;
77105;SDS011;66057;54.718;18.426;2023-05-14T14:18:00;7.68;;;4.65;;
77105;SDS011;66057;54.718;18.426;2023-05-14T14:20:26;5.63;;;4.30;;
77105;SDS011;66057;54.718;18.426;2023-05-14T14:22:53;9.20;;;4.78;;
77105;SDS011;66057;54.718;18.426;2023-05-14T14:25:22;7.95;;;4.80;;
77105;SDS011;66057;54.718;18.426;2023-05-14T14:27:48;8.13;;;4.97;;
77105;SDS011;66057;54.718;18.426;2023-05-14T14:30:17;8.85;;;5.40;;
77105;SDS011;66057;54.718;18.426;2023-05-14T14:32:44;10.57;;;4.88;;
77105;SDS011;66057;54.718;18.426;2023-05-14T14:35:12;8.48;;;5.30;;
77105;SDS011;66057;54.718;18.426;2023-05-14T14:37:41;8.07;;;5.25;;
77105;SDS011;66057;54.718;18.426;2023-05-14T14:40:10;8.38;;;4.63;;
77105;SDS011;66057;54.718;18.426;2023-05-14T14:42:40;9.45;;;5.00;;
77105;SDS011;66057;54.718;18.426;2023-05-14T14:47:41;6.85;;;5.00;;
77105;SDS011;66057;54.718;18.426;2023-05-14T14:50:09;13.20;;;4.97;;
77105;SDS011;66057;54.718;18.426;2023-05-14T14:52:40;6.78;;;4.65;;
77105;SDS011;66057;54.718;18.426;2023-05-14T14:55:09;22.05;;;6.03;;
77105;SDS011;66057;54.718;18.426;2023-05-14T14:57:35;12.02;;;5.55;;
77105;SDS011;66057;54.718;18.426;2023-05-14T15:00:02;9.90;;;5.38;;
77105;SDS011;66057;54.718;18.426;2023-05-14T15:02:28;7.80;;;4.45;;
77105;SDS011;66057;54.718;18.426;2023-05-14T15:04:54;9.70;;;4.50;;
77105;SDS011;66057;54.718;18.426;2023-05-14T15:07:20;6.65;;;4.75;;
77105;SDS011;66057;54.718;18.426;2023-05-14T15:09:47;7.15;;;4.40;;
77105;SDS011;66057;54.718;18.426;2023-05-14T15:12:12;7.55;;;4.15;;
77105;SDS011;66057;54.718;18.426;2023-05-14T15:14:39;7.30;;;4.22;;
77105;SDS011;66057;54.718;18.426;2023-05-14T15:17:05;7.65;;;3.50;;
77105;SDS011;66057;54.718;18.426;2023-05-14T15:19:31;7.32;;;4.07;;
77105;SDS011;66057;54.718;18.426;2023-05-14T15:21:56;6.43;;;3.47;;
77105;SDS011;66057;54.718;18.426;2023-05-14T15:24:26;6.00;;;3.50;;
77105;SDS011;66057;54.718;18.426;2023-05-14T15:26:52;9.88;;;3.70;;
77105;SDS011;66057;54.718;18.426;2023-05-14T15:31:44;4.57;;;3.17;;
77105;SDS011;66057;54.718;18.426;2023-05-14T15:34:10;6.00;;;3.55;;
77105;SDS011;66057;54.718;18.426;2023-05-14T15:36:36;6.32;;;3.38;;
77105;SDS011;66057;54.718;18.426;2023-05-14T15:41:28;7.43;;;3.20;;
77105;SDS011;66057;54.718;18.426;2023-05-14T15:43:55;6.65;;;3.33;;
77105;SDS011;66057;54.718;18.426;2023-05-14T15:46:22;7.47;;;3.55;;